Terminal Aerodrome Forecast
Issued by NWS

Home | Current Version | Previous Version | Text Only | Print | Product List | Glossary On
Versions: 1 2 3 4 5 6 7 8 9 10 11 12 13 14 15 16 17
000
FTUS43 KMQT 170529
TAFIWD
TAF
KIWD 170529Z 1706/1806 17007KT P6SM OVC018
     FM172100 22006KT P6SM BKN020
     FM172300 22005KT P6SM BKN045
     FM180200 23005KT P6SM SCT040=

USA.gov is the U.S. government's official web portal to all federal, state and local government web resources and services.